Time;durP1;ratioP1;P1;durP2;ratioP2;P2;SDS_P1;SDS_P2;PMS_P1;PMS_P2;Temp;Humidity;BMP_temperature;BMP_pressure;BME280_temperature;BME280_humidity;BME280_pressure;Samples;Min_cycle;Max_cycle;Signal;HPM_P1;HPM_P2
2022/01/30 00:03:00;;;;;;;15.70;7.38;;;;;;;;;;6238064;28;20049;-61
2022/01/30 00:06:00;;;;;;;15.88;7.00;;;;;;;;;;6237290;28;20068;-61
2022/01/30 00:09:02;;;;;;;17.05;7.68;;;;;;;;;;6240628;28;20052;-61
2022/01/30 00:12:05;;;;;;;15.93;7.13;;;;;;;;;;6239378;28;20064;-61
2022/01/30 00:15:06;;;;;;;19.30;8.18;;;;;;;;;;6239281;28;20053;-61
2022/01/30 00:18:42;;;;;;;16.55;7.32;;;;;;;;;;6233271;28;20129;-61
2022/01/30 00:24:44;;;;;;;14.38;6.35;;;;;;;;;;6238593;28;20038;-61
2022/01/30 00:28:08;;;;;;;14.13;6.13;;;;;;;;;;6237985;28;20402;-62
2022/01/30 00:31:05;;;;;;;14.63;6.55;;;;;;;;;;6238210;28;20168;-61
2022/01/30 00:34:06;;;;;;;14.32;6.45;;;;;;;;;;6237563;28;20081;-62
2022/01/30 00:37:06;;;;;;;15.43;6.47;;;;;;;;;;6249547;28;20092;-61
2022/01/30 00:40:08;;;;;;;14.48;6.22;;;;;;;;;;6245989;28;20042;-61
2022/01/30 00:43:09;;;;;;;14.75;5.85;;;;;;;;;;6245920;28;20094;-61
2022/01/30 00:46:10;;;;;;;12.50;5.78;;;;;;;;;;6242315;28;20107;-61
2022/01/30 00:49:11;;;;;;;16.38;6.95;;;;;;;;;;6241316;28;20818;-61
2022/01/30 00:52:11;;;;;;;14.00;5.20;;;;;;;;;;6241704;28;20049;-61
2022/01/30 00:55:12;;;;;;;13.98;5.55;;;;;;;;;;6239514;28;20639;-61
2022/01/30 00:58:14;;;;;;;13.20;6.80;;;;;;;;;;6240624;28;20046;-61
2022/01/30 01:01:14;;;;;;;12.27;6.50;;;;;;;;;;6238499;28;20049;-61
2022/01/30 01:04:15;;;;;;;13.82;6.68;;;;;;;;;;6242764;28;20133;-61
2022/01/30 01:07:20;;;;;;;18.65;6.70;;;;;;;;;;6243140;28;20378;-60
2022/01/30 01:13:59;;;;;;;16.45;7.35;;;;;;;;;;6242838;28;20037;-61
2022/01/30 01:23:45;;;;;;;14.40;7.35;;;;;;;;;;6239282;28;20138;-61
2022/01/30 01:26:45;;;;;;;16.83;6.60;;;;;;;;;;6241092;28;20088;-61
2022/01/30 01:29:46;;;;;;;14.38;7.18;;;;;;;;;;6241763;28;20049;-61
2022/01/30 01:32:47;;;;;;;14.90;7.28;;;;;;;;;;6242538;28;20140;-61
2022/01/30 01:35:48;;;;;;;18.23;6.68;;;;;;;;;;6242334;28;20111;-61
2022/01/30 01:38:48;;;;;;;13.88;6.60;;;;;;;;;;6242670;28;20080;-61
2022/01/30 01:41:50;;;;;;;13.38;5.60;;;;;;;;;;6241985;28;20053;-61
2022/01/30 01:44:54;;;;;;;11.45;5.15;;;;;;;;;;6241510;28;20096;-60
2022/01/30 01:47:55;;;;;;;10.60;4.38;;;;;;;;;;6241859;28;20493;-60
2022/01/30 01:51:06;;;;;;;10.60;4.30;;;;;;;;;;6239058;28;20051;-61
2022/01/30 01:54:07;;;;;;;13.63;4.75;;;;;;;;;;6239174;28;20045;-60
2022/01/30 01:57:08;;;;;;;10.27;4.28;;;;;;;;;;6245539;28;20642;-60
2022/01/30 02:00:09;;;;;;;9.60;4.85;;;;;;;;;;6241195;28;20050;-60
2022/01/30 02:03:10;;;;;;;12.32;3.85;;;;;;;;;;6242813;28;20056;-61
2022/01/30 02:06:16;;;;;;;10.00;3.55;;;;;;;;;;6244545;28;20111;-60
2022/01/30 02:09:16;;;;;;;9.88;3.30;;;;;;;;;;6245407;28;20046;-61
2022/01/30 02:12:23;;;;;;;10.95;4.00;;;;;;;;;;6232458;28;20068;-60
2022/01/30 02:28:29;;;;;;;13.70;3.05;;;;;;;;;;6227659;28;20060;-60
2022/01/30 02:31:34;;;;;;;17.02;3.33;;;;;;;;;;6234884;28;20514;-61
2022/01/30 02:34:35;;;;;;;14.90;3.15;;;;;;;;;;6235907;28;20041;-61
2022/01/30 02:37:36;;;;;;;12.82;2.95;;;;;;;;;;6237365;28;20061;-61
2022/01/30 02:40:41;;;;;;;11.63;2.22;;;;;;;;;;6236857;28;20061;-60
2022/01/30 02:43:55;;;;;;;14.85;2.80;;;;;;;;;;6236021;28;20900;-61
2022/01/30 02:47:00;;;;;;;13.90;2.55;;;;;;;;;;6237962;28;20036;-61
2022/01/30 02:50:31;;;;;;;14.23;2.22;;;;;;;;;;6234093;28;20076;-61
2022/01/30 02:53:38;;;;;;;17.27;2.60;;;;;;;;;;6231055;28;20046;-59
2022/01/30 02:56:40;;;;;;;10.80;2.92;;;;;;;;;;6232733;28;20499;-61
2022/01/30 02:59:40;;;;;;;14.40;2.35;;;;;;;;;;6232578;28;20052;-60
2022/01/30 03:02:41;;;;;;;13.70;2.10;;;;;;;;;;6235848;28;20045;-61
2022/01/30 03:05:42;;;;;;;11.35;1.85;;;;;;;;;;6238851;28;20045;-61
2022/01/30 03:08:43;;;;;;;14.43;1.98;;;;;;;;;;6238204;28;20053;-61
2022/01/30 03:11:44;;;;;;;13.23;2.97;;;;;;;;;;6232615;28;20064;-61
2022/01/30 03:14:44;;;;;;;18.30;3.28;;;;;;;;;;6233614;28;20810;-61
2022/01/30 03:17:45;;;;;;;14.82;2.63;;;;;;;;;;6234264;28;20043;-61
2022/01/30 03:20:47;;;;;;;13.50;1.92;;;;;;;;;;6232436;28;20065;-61
2022/01/30 03:23:48;;;;;;;13.65;2.30;;;;;;;;;;6234360;28;20620;-61
2022/01/30 03:26:49;;;;;;;12.25;3.13;;;;;;;;;;6234073;28;20049;-61
2022/01/30 03:29:52;;;;;;;15.85;2.20;;;;;;;;;;6233809;28;20056;-61
2022/01/30 03:32:53;;;;;;;14.43;2.45;;;;;;;;;;6233064;28;20122;-61
2022/01/30 03:35:54;;;;;;;13.02;2.28;;;;;;;;;;6233992;28;20049;-61
2022/01/30 03:38:55;;;;;;;7.25;1.95;;;;;;;;;;6232545;28;20426;-61
2022/01/30 03:41:55;;;;;;;11.65;2.08;;;;;;;;;;6235244;28;20073;-60
2022/01/30 03:44:56;;;;;;;7.75;1.67;;;;;;;;;;6231927;28;20136;-61
2022/01/30 03:47:56;;;;;;;11.77;1.80;;;;;;;;;;6236393;28;20053;-61
2022/01/30 03:50:57;;;;;;;7.22;1.63;;;;;;;;;;6231417;28;20045;-61
2022/01/30 03:53:58;;;;;;;8.70;1.80;;;;;;;;;;6235987;28;20467;-61
2022/01/30 03:56:59;;;;;;;16.90;2.60;;;;;;;;;;6235226;28;20646;-61
2022/01/30 03:59:59;;;;;;;12.50;3.20;;;;;;;;;;6233237;28;20045;-61
2022/01/30 04:03:00;;;;;;;12.20;2.08;;;;;;;;;;6231513;28;20115;-61
2022/01/30 04:06:01;;;;;;;11.18;2.95;;;;;;;;;;6232322;28;20045;-61
2022/01/30 04:09:03;;;;;;;11.57;2.00;;;;;;;;;;6239429;28;20496;-61
2022/01/30 04:12:04;;;;;;;14.40;2.85;;;;;;;;;;6239812;28;20139;-61
2022/01/30 04:15:06;;;;;;;7.72;2.33;;;;;;;;;;6244477;28;20041;-61
2022/01/30 04:18:07;;;;;;;13.77;3.03;;;;;;;;;;6246941;28;20038;-61
2022/01/30 04:21:08;;;;;;;16.38;2.35;;;;;;;;;;6235740;28;20065;-61
2022/01/30 04:24:09;;;;;;;9.95;2.33;;;;;;;;;;6236017;28;20044;-61
2022/01/30 04:27:10;;;;;;;6.35;2.13;;;;;;;;;;6235353;28;20092;-61
2022/01/30 04:30:11;;;;;;;13.00;2.28;;;;;;;;;;6232304;28;20045;-61
2022/01/30 04:33:12;;;;;;;12.77;2.22;;;;;;;;;;6232611;28;20081;-61
2022/01/30 04:36:18;;;;;;;12.00;1.60;;;;;;;;;;6235132;28;20056;-61
2022/01/30 04:53:11;;;;;;;10.90;2.00;;;;;;;;;;6230199;28;20144;-61
2022/01/30 04:59:28;;;;;;;12.05;2.55;;;;;;;;;;6232174;28;20246;-61
2022/01/30 05:05:59;;;;;;;10.07;2.05;;;;;;;;;;6227223;28;20069;-61
2022/01/30 05:09:00;;;;;;;9.20;2.75;;;;;;;;;;6228778;28;20057;-61
2022/01/30 05:12:01;;;;;;;10.43;2.40;;;;;;;;;;6232657;28;20049;-60
2022/01/30 05:15:02;;;;;;;10.60;2.30;;;;;;;;;;6231450;28;20611;-61
2022/01/30 05:18:03;;;;;;;8.43;2.38;;;;;;;;;;6231750;28;20037;-61
2022/01/30 05:21:04;;;;;;;11.45;2.78;;;;;;;;;;6237475;28;20132;-61
2022/01/30 05:24:05;;;;;;;16.40;2.70;;;;;;;;;;6239123;28;21020;-61
2022/01/30 05:27:06;;;;;;;8.52;1.95;;;;;;;;;;6234624;28;20058;-62
2022/01/30 05:30:07;;;;;;;12.27;2.38;;;;;;;;;;6236857;28;20064;-61
2022/01/30 05:33:09;;;;;;;13.52;2.72;;;;;;;;;;6237104;28;20147;-60
2022/01/30 05:36:10;;;;;;;11.00;2.10;;;;;;;;;;6237034;28;20061;-61
2022/01/30 05:39:11;;;;;;;13.93;2.47;;;;;;;;;;6235013;28;20888;-61
2022/01/30 05:42:13;;;;;;;9.60;1.98;;;;;;;;;;6236502;28;20451;-62
2022/01/30 05:45:24;;;;;;;13.90;3.47;;;;;;;;;;6234292;28;20053;-61
2022/01/30 05:48:25;;;;;;;17.87;2.60;;;;;;;;;;6234654;28;20099;-61
2022/01/30 05:51:26;;;;;;;9.23;2.05;;;;;;;;;;6235988;28;20545;-61
2022/01/30 05:54:26;;;;;;;11.25;2.00;;;;;;;;;;6236241;28;20041;-61
2022/01/30 05:57:27;;;;;;;12.25;2.13;;;;;;;;;;6235011;28;20156;-61
2022/01/30 06:00:28;;;;;;;7.95;1.98;;;;;;;;;;6235492;28;20056;-61
2022/01/30 06:03:29;;;;;;;13.13;1.83;;;;;;;;;;6238776;28;20561;-61
2022/01/30 06:06:30;;;;;;;11.60;2.30;;;;;;;;;;6236965;28;20037;-61
2022/01/30 06:09:31;;;;;;;11.05;2.33;;;;;;;;;;6235791;28;20128;-61
2022/01/30 06:12:31;;;;;;;10.63;1.95;;;;;;;;;;6238983;28;20049;-61
2022/01/30 06:15:32;;;;;;;11.25;1.48;;;;;;;;;;6236580;28;20119;-61
2022/01/30 06:18:33;;;;;;;6.82;1.35;;;;;;;;;;6232959;28;20172;-60
2022/01/30 06:21:33;;;;;;;11.90;2.40;;;;;;;;;;6228730;28;20056;-61
2022/01/30 06:24:34;;;;;;;11.98;1.73;;;;;;;;;;6235356;28;20048;-62
2022/01/30 06:27:35;;;;;;;11.07;2.00;;;;;;;;;;6234554;28;20049;-61
2022/01/30 06:30:36;;;;;;;8.77;1.88;;;;;;;;;;6237359;28;20080;-62
2022/01/30 06:33:37;;;;;;;8.93;1.90;;;;;;;;;;6231400;28;20051;-63
2022/01/30 06:36:38;;;;;;;9.85;1.35;;;;;;;;;;6233816;28;20045;-66
2022/01/30 06:39:39;;;;;;;11.65;2.08;;;;;;;;;;6235642;28;20830;-62
2022/01/30 06:42:39;;;;;;;10.23;2.30;;;;;;;;;;6240222;28;20151;-62
2022/01/30 06:45:42;;;;;;;9.27;1.65;;;;;;;;;;6241420;28;20060;-62
2022/01/30 06:48:43;;;;;;;10.80;1.50;;;;;;;;;;6240292;28;20045;-62
2022/01/30 06:51:43;;;;;;;7.85;1.70;;;;;;;;;;6237722;28;20477;-62
2022/01/30 06:54:44;;;;;;;10.25;1.58;;;;;;;;;;6236065;28;20500;-62
2022/01/30 06:57:46;;;;;;;12.18;2.00;;;;;;;;;;6233012;28;20048;-61
2022/01/30 07:00:46;;;;;;;5.95;1.83;;;;;;;;;;6231872;28;20065;-62
2022/01/30 07:03:47;;;;;;;12.95;2.42;;;;;;;;;;6237269;28;20047;-62
2022/01/30 07:06:48;;;;;;;23.60;2.22;;;;;;;;;;6233644;28;20103;-63
2022/01/30 07:09:48;;;;;;;7.07;2.13;;;;;;;;;;6235348;28;20839;-62
2022/01/30 07:12:49;;;;;;;6.50;1.55;;;;;;;;;;6234018;28;20053;-62
2022/01/30 07:15:49;;;;;;;9.10;1.58;;;;;;;;;;6229761;28;20820;-62
2022/01/30 07:18:51;;;;;;;7.20;1.67;;;;;;;;;;6233799;28;20515;-62
2022/01/30 07:21:52;;;;;;;13.57;2.05;;;;;;;;;;6234350;28;20140;-61
2022/01/30 07:24:54;;;;;;;10.55;1.65;;;;;;;;;;6232480;28;20516;-62
2022/01/30 07:27:54;;;;;;;9.48;1.75;;;;;;;;;;6229800;28;20088;-63
2022/01/30 07:30:55;;;;;;;7.97;1.88;;;;;;;;;;6233595;28;20504;-62
2022/01/30 07:33:56;;;;;;;9.70;2.00;;;;;;;;;;6231603;28;20048;-62
2022/01/30 07:36:58;;;;;;;8.80;2.00;;;;;;;;;;6232941;28;20540;-63
2022/01/30 07:39:59;;;;;;;11.47;2.43;;;;;;;;;;6234734;28;20050;-64
2022/01/30 07:43:01;;;;;;;8.02;2.38;;;;;;;;;;6239485;28;20778;-61
2022/01/30 07:46:04;;;;;;;11.90;2.67;;;;;;;;;;6242371;28;20064;-63
2022/01/30 07:49:04;;;;;;;11.73;2.53;;;;;;;;;;6241427;28;20036;-64
2022/01/30 07:52:05;;;;;;;12.48;3.00;;;;;;;;;;6243665;28;20156;-62
2022/01/30 07:55:06;;;;;;;11.85;2.10;;;;;;;;;;6239295;28;20072;-62
2022/01/30 07:58:07;;;;;;;9.10;2.25;;;;;;;;;;6239131;28;20519;-62
2022/01/30 08:01:07;;;;;;;7.63;2.45;;;;;;;;;;6239148;28;20041;-61
2022/01/30 08:04:08;;;;;;;12.15;2.45;;;;;;;;;;6238847;28;20129;-63
2022/01/30 08:07:09;;;;;;;14.18;2.33;;;;;;;;;;6243243;28;20495;-62
2022/01/30 08:10:10;;;;;;;13.25;2.78;;;;;;;;;;6238828;28;20110;-62
2022/01/30 08:13:11;;;;;;;7.10;2.67;;;;;;;;;;6239665;28;20037;-62
2022/01/30 08:16:11;;;;;;;12.77;2.00;;;;;;;;;;6241007;28;20045;-62
2022/01/30 08:19:12;;;;;;;12.00;2.05;;;;;;;;;;6237166;28;20123;-62
2022/01/30 08:22:14;;;;;;;9.68;2.90;;;;;;;;;;6240661;28;20453;-62
2022/01/30 08:25:16;;;;;;;9.25;2.10;;;;;;;;;;6240337;28;20049;-64
2022/01/30 08:28:16;;;;;;;14.52;2.78;;;;;;;;;;6233835;28;20049;-64
2022/01/30 08:31:17;;;;;;;10.45;2.63;;;;;;;;;;6239087;28;20052;-64
2022/01/30 08:34:18;;;;;;;8.52;2.53;;;;;;;;;;6260751;28;20214;-62
2022/01/30 08:37:18;;;;;;;12.68;2.55;;;;;;;;;;6249962;28;20504;-62
2022/01/30 08:40:21;;;;;;;10.43;2.25;;;;;;;;;;6239954;28;20239;-62
2022/01/30 08:43:22;;;;;;;10.65;2.42;;;;;;;;;;6239528;28;20041;-61
2022/01/30 08:46:23;;;;;;;9.05;2.47;;;;;;;;;;6237733;28;20117;-62
2022/01/30 08:49:23;;;;;;;10.95;3.65;;;;;;;;;;6240675;28;20049;-65
2022/01/30 08:52:24;;;;;;;13.57;3.10;;;;;;;;;;6238850;28;20127;-62
2022/01/30 08:55:29;;;;;;;10.55;2.20;;;;;;;;;;6261835;28;20056;-64
2022/01/30 08:58:30;;;;;;;10.13;2.47;;;;;;;;;;6263799;28;20480;-63
2022/01/30 09:01:32;;;;;;;12.18;3.78;;;;;;;;;;6262117;28;20049;-63
2022/01/30 09:04:33;;;;;;;;;;;;;;;;;;6268797;28;20107;-62
2022/01/30 09:07:34;;;;;;;15.25;3.60;;;;;;;;;;6247408;28;19929;-66
2022/01/30 09:10:37;;;;;;;15.55;3.20;;;;;;;;;;6244175;28;20417;-65
2022/01/30 09:13:38;;;;;;;11.90;3.05;;;;;;;;;;6244713;28;20516;-66
2022/01/30 09:16:39;;;;;;;14.07;2.65;;;;;;;;;;6242127;28;20095;-64
2022/01/30 09:19:41;;;;;;;10.55;3.05;;;;;;;;;;6241932;28;20132;-63
2022/01/30 09:22:42;;;;;;;15.10;3.25;;;;;;;;;;6246408;28;20045;-64
2022/01/30 09:25:43;;;;;;;12.10;2.28;;;;;;;;;;6245074;28;20048;-64
2022/01/30 09:28:43;;;;;;;20.25;3.30;;;;;;;;;;6243260;28;20161;-64
2022/01/30 09:31:44;;;;;;;11.80;2.60;;;;;;;;;;6241912;28;20080;-63
2022/01/30 09:34:45;;;;;;;15.57;3.17;;;;;;;;;;6244618;28;20050;-63
2022/01/30 09:37:45;;;;;;;14.30;2.50;;;;;;;;;;6243075;28;20044;-61
2022/01/30 09:40:50;;;;;;;10.75;3.20;;;;;;;;;;6241615;28;20084;-64
2022/01/30 09:43:52;;;;;;;12.07;3.05;;;;;;;;;;6245681;28;20485;-65
2022/01/30 09:46:53;;;;;;;12.00;2.50;;;;;;;;;;6243379;28;20050;-63
2022/01/30 09:49:56;;;;;;;13.38;3.20;;;;;;;;;;6242748;28;20040;-64
2022/01/30 09:52:56;;;;;;;10.43;2.63;;;;;;;;;;6241992;28;20045;-64
2022/01/30 09:55:57;;;;;;;12.13;2.50;;;;;;;;;;6258253;28;20049;-64
2022/01/30 09:58:58;;;;;;;13.02;2.47;;;;;;;;;;6259948;28;20529;-65
2022/01/30 10:02:03;;;;;;;11.13;2.55;;;;;;;;;;6249049;28;20180;-65
2022/01/30 10:05:04;;;;;;;10.52;2.40;;;;;;;;;;6252989;28;20173;-63
2022/01/30 10:08:05;;;;;;;13.73;2.75;;;;;;;;;;6242180;28;20045;-64
2022/01/30 10:11:26;;;;;;;15.90;3.25;;;;;;;;;;6240542;28;20080;-62
2022/01/30 10:14:27;;;;;;;13.93;3.20;;;;;;;;;;6244071;28;20049;-61
2022/01/30 10:17:30;;;;;;;12.00;3.20;;;;;;;;;;6240365;28;20520;-65
2022/01/30 10:20:37;;;;;;;19.63;3.42;;;;;;;;;;6253557;28;20065;-64
2022/01/30 10:23:37;;;;;;;15.45;2.75;;;;;;;;;;6247097;28;20481;-63
2022/01/30 10:26:38;;;;;;;12.13;2.35;;;;;;;;;;6242154;28;20038;-64
2022/01/30 10:29:39;;;;;;;13.10;2.90;;;;;;;;;;6249581;28;20125;-63
2022/01/30 10:32:54;;;;;;;14.25;2.70;;;;;;;;;;6253025;28;20068;-63
2022/01/30 10:35:57;;;;;;;16.75;3.85;;;;;;;;;;6242007;28;20103;-63
2022/01/30 10:39:13;;;;;;;17.25;2.90;;;;;;;;;;6244911;28;20489;-64
2022/01/30 10:42:31;;;;;;;14.18;3.67;;;;;;;;;;6240964;28;20096;-64
2022/01/30 10:45:33;;;;;;;11.40;3.00;;;;;;;;;;6235908;28;20381;-65
2022/01/30 10:48:33;;;;;;;12.98;2.90;;;;;;;;;;6241062;28;20045;-64
2022/01/30 10:51:34;;;;;;;16.70;4.70;;;;;;;;;;6253960;28;20049;-64
2022/01/30 10:54:35;;;;;;;12.10;3.00;;;;;;;;;;6245441;28;20407;-64
2022/01/30 10:57:40;;;;;;;11.27;3.25;;;;;;;;;;6261696;28;20052;-64
2022/01/30 11:00:44;;;;;;;16.77;4.15;;;;;;;;;;6258509;28;20052;-64
2022/01/30 11:03:50;;;;;;;21.05;3.90;;;;;;;;;;6249678;28;20076;-65
2022/01/30 11:06:51;;;;;;;11.73;3.70;;;;;;;;;;6265493;28;20064;-63
2022/01/30 11:10:23;;;;;;;17.52;4.40;;;;;;;;;;6265742;28;20056;-66
2022/01/30 11:13:32;;;;;;;19.00;5.22;;;;;;;;;;6265943;28;20106;-64
2022/01/30 11:19:56;;;;;;;24.85;7.03;;;;;;;;;;6258802;28;20411;-64
2022/01/30 11:23:02;;;;;;;20.08;6.20;;;;;;;;;;6266481;28;20087;-64
2022/01/30 11:26:03;;;;;;;16.67;4.20;;;;;;;;;;6259440;28;20086;-63
2022/01/30 11:29:08;;;;;;;14.80;4.22;;;;;;;;;;6240760;28;20473;-64
2022/01/30 11:32:09;;;;;;;17.95;4.28;;;;;;;;;;6241520;28;20416;-63
2022/01/30 11:35:10;;;;;;;14.73;4.13;;;;;;;;;;6243050;28;20463;-64
2022/01/30 11:38:11;;;;;;;19.17;5.10;;;;;;;;;;6250441;28;20168;-62
2022/01/30 11:41:15;;;;;;;21.83;4.82;;;;;;;;;;6240401;28;20057;-62
2022/01/30 11:44:19;;;;;;;15.85;5.30;;;;;;;;;;6240358;28;20041;-63
2022/01/30 11:47:21;;;;;;;24.45;4.35;;;;;;;;;;6239743;28;20060;-65
2022/01/30 11:50:25;;;;;;;;;;;;;;;;;;6235784;28;20216;-63
2022/01/30 11:53:28;;;;;;;16.23;5.03;;;;;;;;;;6235424;28;20601;-63
2022/01/30 11:56:31;;;;;;;17.65;4.60;;;;;;;;;;6240196;28;20107;-63
2022/01/30 11:59:37;;;;;;;19.10;4.20;;;;;;;;;;6237649;28;20048;-63
2022/01/30 12:02:38;;;;;;;14.07;3.90;;;;;;;;;;6231871;28;21233;-62
2022/01/30 12:05:38;;;;;;;16.70;4.55;;;;;;;;;;6223924;28;20144;-62
2022/01/30 12:08:44;;;;;;;19.90;5.28;;;;;;;;;;6230020;28;20144;-64
2022/01/30 12:11:47;;;;;;;12.93;3.85;;;;;;;;;;6229566;28;20592;-63
2022/01/30 12:14:49;;;;;;;23.85;4.78;;;;;;;;;;6228135;28;20045;-63
2022/01/30 12:17:50;;;;;;;16.63;3.47;;;;;;;;;;6227736;28;20160;-62
2022/01/30 12:20:57;;;;;;;19.90;4.20;;;;;;;;;;6230791;28;20416;-62
2022/01/30 12:24:22;;;;;;;19.40;4.53;;;;;;;;;;6228875;28;20496;-62
2022/01/30 12:27:49;;;;;;;14.82;3.42;;;;;;;;;;6229125;28;20054;-62
2022/01/30 12:30:51;;;;;;;23.50;3.80;;;;;;;;;;6234728;28;20517;-62
2022/01/30 12:34:01;;;;;;;22.00;4.00;;;;;;;;;;6233924;28;20134;-63
2022/01/30 12:37:03;;;;;;;15.23;3.38;;;;;;;;;;6237485;28;20072;-61
2022/01/30 12:40:10;;;;;;;17.60;3.67;;;;;;;;;;6236852;28;20045;-61
2022/01/30 12:43:11;;;;;;;18.00;3.63;;;;;;;;;;6235524;28;20049;-63
2022/01/30 12:46:13;;;;;;;13.73;3.15;;;;;;;;;;6235454;28;20049;-63
2022/01/30 12:49:21;;;;;;;13.70;3.40;;;;;;;;;;6235005;28;20450;-62
2022/01/30 12:55:29;;;;;;;21.55;5.35;;;;;;;;;;6234195;28;20136;-70
2022/01/30 12:58:35;;;;;;;16.70;3.60;;;;;;;;;;6235228;28;20100;-61
2022/01/30 13:01:41;;;;;;;19.30;4.13;;;;;;;;;;6235210;28;20073;-62
2022/01/30 13:04:41;;;;;;;19.45;5.13;;;;;;;;;;6231987;28;20128;-62
2022/01/30 13:07:52;;;;;;;15.60;3.83;;;;;;;;;;6233614;28;20718;-62
2022/01/30 13:10:52;;;;;;;19.02;3.75;;;;;;;;;;6233295;28;20079;-61
2022/01/30 13:14:07;;;;;;;18.33;4.40;;;;;;;;;;6231506;28;20135;-56
2022/01/30 13:17:10;;;;;;;20.00;4.00;;;;;;;;;;6235927;28;20045;-61
2022/01/30 13:20:12;;;;;;;14.30;2.88;;;;;;;;;;6234327;28;20077;-60
2022/01/30 13:23:13;;;;;;;24.08;5.00;;;;;;;;;;6232521;28;20057;-62
2022/01/30 13:26:33;;;;;;;18.23;4.47;;;;;;;;;;6234249;28;20429;-62
2022/01/30 13:29:36;;;;;;;27.83;5.28;;;;;;;;;;6232506;28;20417;-61
2022/01/30 13:32:40;;;;;;;;;;;;;;;;;;6230555;28;20041;-62
2022/01/30 13:35:46;;;;;;;20.75;3.58;;;;;;;;;;6233998;28;20463;-66
2022/01/30 13:38:47;;;;;;;22.88;4.57;;;;;;;;;;6233018;28;20065;-62
2022/01/30 13:41:59;;;;;;;22.20;5.60;;;;;;;;;;6232836;28;20944;-63
2022/01/30 13:48:21;;;;;;;33.67;5.53;;;;;;;;;;6231398;28;20046;-62
2022/01/30 13:51:22;;;;;;;18.50;4.85;;;;;;;;;;6230970;28;20057;-62
2022/01/30 13:54:24;;;;;;;25.05;5.03;;;;;;;;;;6228479;28;20056;-62
2022/01/30 13:57:33;;;;;;;31.25;5.30;;;;;;;;;;6233288;28;20077;-62
2022/01/30 14:00:36;;;;;;;21.98;6.13;;;;;;;;;;6233220;28;20050;-62
2022/01/30 14:03:40;;;;;;;35.65;6.03;;;;;;;;;;6230972;28;20056;-62
2022/01/30 14:06:42;;;;;;;26.38;5.97;;;;;;;;;;6234796;28;20057;-62
2022/01/30 14:09:48;;;;;;;25.27;6.45;;;;;;;;;;6232865;28;20119;-64
2022/01/30 14:12:52;;;;;;;26.38;6.07;;;;;;;;;;6231564;28;20053;-63
2022/01/30 14:15:59;;;;;;;31.20;6.05;;;;;;;;;;6232694;28;20574;-63
2022/01/30 14:19:00;;;;;;;31.25;5.72;;;;;;;;;;6232981;28;20579;-63
2022/01/30 14:22:12;;;;;;;19.98;4.80;;;;;;;;;;6232841;28;20041;-63
2022/01/30 14:25:18;;;;;;;30.25;5.47;;;;;;;;;;6228477;28;20057;-62
2022/01/30 14:28:23;;;;;;;23.42;4.28;;;;;;;;;;6230316;28;20057;-63
2022/01/30 14:31:24;;;;;;;31.17;7.10;;;;;;;;;;6232931;28;20046;-61
2022/01/30 14:34:26;;;;;;;24.70;4.82;;;;;;;;;;6230078;28;20139;-61
2022/01/30 14:37:27;;;;;;;31.80;6.95;;;;;;;;;;6233653;28;20077;-60
2022/01/30 14:40:28;;;;;;;27.85;6.53;;;;;;;;;;6230868;28;20144;-60
2022/01/30 14:43:28;;;;;;;29.33;5.95;;;;;;;;;;6230427;28;20037;-61
2022/01/30 14:46:29;;;;;;;25.27;5.05;;;;;;;;;;6231813;28;20038;-61
2022/01/30 14:49:30;;;;;;;25.02;5.40;;;;;;;;;;6233665;28;20041;-60
2022/01/30 14:52:31;;;;;;;27.05;5.85;;;;;;;;;;6230055;28;20129;-61
2022/01/30 14:55:32;;;;;;;27.48;4.60;;;;;;;;;;6231951;28;20518;-61
2022/01/30 14:58:40;;;;;;;26.33;6.65;;;;;;;;;;6230946;28;20064;-60
2022/01/30 15:01:41;;;;;;;25.40;5.68;;;;;;;;;;6232172;28;20107;-60
2022/01/30 15:04:42;;;;;;;19.38;5.50;;;;;;;;;;6230759;28;21481;-73
2022/01/30 15:07:43;;;;;;;26.08;6.10;;;;;;;;;;6232263;28;20049;-62
2022/01/30 15:10:44;;;;;;;23.35;5.70;;;;;;;;;;6230487;28;20080;-62
2022/01/30 15:13:46;;;;;;;24.63;5.85;;;;;;;;;;6230261;28;20532;-62
2022/01/30 15:16:49;;;;;;;;;;;;;;;;;;6232848;28;20276;-61
2022/01/30 15:19:50;;;;;;;31.02;5.28;;;;;;;;;;6230049;28;19986;-61
2022/01/30 15:22:51;;;;;;;35.85;5.97;;;;;;;;;;6229459;28;20446;-62
2022/01/30 15:25:52;;;;;;;25.42;5.85;;;;;;;;;;6232340;28;20615;-61
2022/01/30 15:28:53;;;;;;;34.17;6.63;;;;;;;;;;6231399;28;20052;-61
2022/01/30 15:31:54;;;;;;;32.75;8.98;;;;;;;;;;6232071;28;20049;-61
2022/01/30 15:34:57;;;;;;;41.60;7.80;;;;;;;;;;6228503;28;20131;-61
2022/01/30 15:37:58;;;;;;;33.78;6.10;;;;;;;;;;6232625;28;20234;-63
2022/01/30 15:40:59;;;;;;;28.60;6.00;;;;;;;;;;6232401;28;20132;-62
2022/01/30 15:44:02;;;;;;;40.55;7.68;;;;;;;;;;6228440;28;20508;-62
2022/01/30 15:50:25;;;;;;;27.63;6.60;;;;;;;;;;6229050;28;20049;-61
2022/01/30 15:53:26;;;;;;;26.17;5.80;;;;;;;;;;6229814;28;20056;-62
2022/01/30 15:56:28;;;;;;;36.83;7.30;;;;;;;;;;6229092;28;20050;-62
2022/01/30 15:59:28;;;;;;;33.40;5.77;;;;;;;;;;6229661;28;20547;-63
2022/01/30 16:02:29;;;;;;;27.05;6.15;;;;;;;;;;6228872;28;20302;-62
2022/01/30 16:05:30;;;;;;;44.45;7.47;;;;;;;;;;6228301;28;20081;-61
2022/01/30 16:08:37;;;;;;;25.80;5.93;;;;;;;;;;6229935;28;20539;-62
2022/01/30 16:18:01;;;;;;;36.30;5.88;;;;;;;;;;6230734;28;20073;-61
2022/01/30 16:21:02;;;;;;;30.92;5.93;;;;;;;;;;6231450;28;20460;-61
2022/01/30 16:24:05;;;;;;;34.17;5.88;;;;;;;;;;6225163;28;20049;-61
2022/01/30 16:27:07;;;;;;;37.88;8.48;;;;;;;;;;6229966;28;20512;-61
2022/01/30 16:30:09;;;;;;;;;;;;;;;;;;6230426;28;20060;-61
2022/01/30 16:33:09;;;;;;;35.83;6.57;;;;;;;;;;6227514;28;19932;-61
2022/01/30 16:36:10;;;;;;;33.30;5.85;;;;;;;;;;6230340;28;20083;-61
2022/01/30 16:39:11;;;;;;;25.38;5.57;;;;;;;;;;6228234;28;20065;-61
2022/01/30 16:42:12;;;;;;;25.88;5.15;;;;;;;;;;6228449;28;20042;-60
2022/01/30 16:45:17;;;;;;;29.95;6.50;;;;;;;;;;6227206;28;20058;-60
2022/01/30 16:48:20;;;;;;;27.63;5.28;;;;;;;;;;6225026;28;20060;-61
2022/01/30 16:51:21;;;;;;;33.97;6.28;;;;;;;;;;6229658;28;20584;-61
2022/01/30 16:54:22;;;;;;;24.20;5.05;;;;;;;;;;6227452;28;20073;-63
2022/01/30 16:57:24;;;;;;;28.73;5.45;;;;;;;;;;6231296;28;20056;-60
2022/01/30 17:00:26;;;;;;;;;;;;;;;;;;6231296;28;20057;-60
2022/01/30 17:03:26;;;;;;;31.58;5.35;;;;;;;;;;6226707;28;19965;-60
2022/01/30 17:06:27;;;;;;;35.95;5.78;;;;;;;;;;6231388;28;20083;-61
2022/01/30 17:09:39;;;;;;;38.83;6.22;;;;;;;;;;6229744;28;20583;-60
2022/01/30 17:16:18;;;;;;;38.60;5.78;;;;;;;;;;6203848;28;20053;-61
2022/01/30 17:19:20;;;;;;;31.95;8.07;;;;;;;;;;6233633;28;20176;-61
2022/01/30 17:22:21;;;;;;;25.13;5.20;;;;;;;;;;6234778;28;20064;-61
2022/01/30 17:25:22;;;;;;;29.73;5.32;;;;;;;;;;6233089;28;20096;-62
2022/01/30 17:28:24;;;;;;;33.03;6.70;;;;;;;;;;6234460;28;20673;-61
2022/01/30 17:31:25;;;;;;;38.17;5.63;;;;;;;;;;6228445;28;20057;-62
2022/01/30 17:34:26;;;;;;;34.80;6.15;;;;;;;;;;6231244;28;20048;-60
2022/01/30 17:37:29;;;;;;;22.88;5.50;;;;;;;;;;6234048;28;20115;-61
2022/01/30 17:40:30;;;;;;;26.33;5.22;;;;;;;;;;6230894;28;20152;-60
2022/01/30 17:43:30;;;;;;;26.02;5.05;;;;;;;;;;6228490;28;20488;-63
2022/01/30 17:46:31;;;;;;;30.50;5.45;;;;;;;;;;6233343;28;20489;-64
2022/01/30 17:49:33;;;;;;;36.72;5.82;;;;;;;;;;6235001;28;20049;-61
2022/01/30 17:52:34;;;;;;;24.83;5.32;;;;;;;;;;6231036;28;20049;-62
2022/01/30 17:55:35;;;;;;;29.02;5.72;;;;;;;;;;6233732;28;20042;-60
2022/01/30 17:58:36;;;;;;;40.55;7.25;;;;;;;;;;6232209;28;20076;-63
2022/01/30 18:01:37;;;;;;;28.60;6.10;;;;;;;;;;6232260;28;20068;-64
2022/01/30 18:04:38;;;;;;;26.35;5.07;;;;;;;;;;6226416;28;20053;-64
2022/01/30 18:07:41;;;;;;;42.05;7.63;;;;;;;;;;6228235;28;20041;-64
2022/01/30 18:10:43;;;;;;;32.35;5.93;;;;;;;;;;6232080;28;20045;-65
2022/01/30 18:13:44;;;;;;;26.77;5.55;;;;;;;;;;6229445;28;20049;-64
2022/01/30 18:16:45;;;;;;;35.70;6.15;;;;;;;;;;6230416;28;20057;-62
2022/01/30 18:19:46;;;;;;;31.80;6.85;;;;;;;;;;6232330;28;20505;-62
2022/01/30 18:22:47;;;;;;;28.90;6.28;;;;;;;;;;6231203;28;20135;-58
2022/01/30 18:25:47;;;;;;;41.40;6.68;;;;;;;;;;6231617;28;20052;-62
2022/01/30 18:28:48;;;;;;;41.05;6.85;;;;;;;;;;6231024;28;20458;-64
2022/01/30 18:31:52;;;;;;;39.38;7.65;;;;;;;;;;6231224;28;20054;-61
2022/01/30 18:34:56;;;;;;;33.53;5.45;;;;;;;;;;6229603;28;20532;-62
2022/01/30 18:37:59;;;;;;;30.98;6.63;;;;;;;;;;6230686;28;20049;-62
2022/01/30 18:44:04;;;;;;;39.55;6.38;;;;;;;;;;6230133;28;20053;-59
2022/01/30 18:47:05;;;;;;;30.65;6.15;;;;;;;;;;6230215;28;20500;-64
2022/01/30 18:50:07;;;;;;;39.83;6.68;;;;;;;;;;6230518;28;20042;-59
2022/01/30 18:53:08;;;;;;;37.10;6.15;;;;;;;;;;6229672;28;20050;-63
2022/01/30 18:56:11;;;;;;;30.40;5.45;;;;;;;;;;6230027;28;20049;-62
2022/01/30 18:59:13;;;;;;;31.00;7.03;;;;;;;;;;6230546;28;20148;-63
2022/01/30 19:02:15;;;;;;;33.50;6.43;;;;;;;;;;6231138;28;20049;-63
2022/01/30 19:05:16;;;;;;;37.17;6.43;;;;;;;;;;6229827;28;20053;-61
2022/01/30 19:08:17;;;;;;;30.52;6.53;;;;;;;;;;6229970;28;20708;-63
2022/01/30 19:11:18;;;;;;;26.85;6.00;;;;;;;;;;6229571;28;20084;-64
2022/01/30 19:14:19;;;;;;;32.55;6.28;;;;;;;;;;6227946;28;20057;-64
2022/01/30 19:17:20;;;;;;;38.42;7.30;;;;;;;;;;6228638;28;20840;-64